Airfield :
LOGIN :

Register | Disclaimer

   EN    FR    IT 

 










Legend :    VFR   Marginal VFR   IFR   Intensive IFR   Very Intensive IFR
Visi :
Ceiling :
>= 8 km
>= 3000ft
5 to 8 km
1000 to 3000 ft
1500m to 5 km
500 to 1000 ft
800 to 1500m
200 to 500 ft
< 800m
< 200 ft
Symbols :   Thunderstorms  Fog  Heavy snow  Heavy precipitations  Wind > 20 kt
SIGMETs :     Misc.  Thunderstorms  Icing  Turbulence  Mountain Waves  Volcanic Ashes







- Airport Elevation : 51 ft
- IATA code : GWT


EDXW - Westerland-Sylt Island

EXPIRED METARs :
  • 241420Z 28020KT 9999 FEW023 SCT035 16/12 Q1008
  • 241350Z 28018KT 9999 FEW016 SCT034 16/12 Q1008
  • 241320Z 27017KT 9999 FEW016 SCT029 16/15 Q1008
  • 241250Z 28019KT 9999 FEW019 BKN180 16/16 Q1008
  • 241220Z 28015KT 9999 FEW007 BKN180 15/15 Q1008
  • 241200Z 28014KT 9999 FEW007 SCT180 15/15 Q1007 RMK ATIS SIE
  • 241150Z 28016KT 7000 -RA SCT005 BKN007 14/14 Q1007

Expired Forecast.
No reported NOTAMs for that airfield.



MET'MAP, your aeronautical weather chart ! - Copyright ORBIFLY December 2007 - Disclaimer

ORBIFLY MET'MAP TEAM :

Programming & Development : Alexandra Zaïnal
Concept & Development : Baudouin d'Aumeries
Co-Development & Prog : Marc-Olivier Méhu
Technical & hardware support : Manuel Goepfert

Contact : metmap@orbifly.com




SOURCES & CREDITS :

   NOAA